• Join FlightAware (Why Join?)
  • Login
  • US Flag 
06:44AM EDT


 

Airport Tracker/Info


-or-


 

Live Flight TrackerFlight Track Log ✈ UAL582 ✈ 16-Apr-2013 ✈ KORD - KRSW

Flight Track Log - Related Links

Times and Time Zones

All times are in EDT time to prevent confusion due to time zone crossing. See the UAL582 flight status page for this flight to view local times or setup timezone preferences in your user account.

Time Position Orientation Groundspeed Altitude Reporting Facility
EDT Latitude Longitude Course Direction KTS MPH feet Rate Location/Type
08:55PM 41.9833 -87.8833 143° Southeast 149 171 1,800  Level Chicago TRACON
08:56PM 41.9333 -87.8333 143° Southeast 218 251 3,000 2,160 Climbing Chicago TRACON
08:57PM 41.8428 -87.7775 155° Southeast 272 313 7,400 2,760 Climbing Chicago Center
08:59PM 41.7675 -87.7642 172° South 276 318 10,200 2,700 Climbing Chicago Center
09:00PM 41.6878 -87.7442 169° South 289 333 13,000 2,340 Climbing Chicago Center
09:01PM 41.6075 -87.7000 158° South 316 364 15,100 1,860 Climbing Chicago Center
09:02PM 41.5175 -87.6544 159° South 355 409 16,900 2,340 Climbing Chicago Center
09:03PM 41.4200 -87.6358 172° South 352 405 20,000 3,000 Climbing Chicago Center
09:04PM 41.2978 -87.6125 172° South 366 421 23,100 2,460 Climbing Chicago Center
09:05PM 41.1972 -87.5464 154° Southeast 414 476 25,100 1,800 Climbing Chicago Center
09:06PM 41.0983 -87.4603 147° Southeast 425 489 26,900 1,500 Climbing Chicago Center
09:07PM 40.9975 -87.3747 147° Southeast 430 495 28,200 1,200 Climbing Chicago Center
09:08PM 40.8906 -87.3008 152° Southeast 434 499 29,500 1,200 Climbing Chicago Center
09:09PM 40.7794 -87.2397 157° South 434 499 30,700 1,260 Climbing Chicago Center
09:10PM 40.6639 -87.2181 172° South 422 486 32,200 1,200 Climbing Chicago Center
09:11PM 40.5283 -87.1992 174° South 411 473 33,300 840 Climbing Chicago Center
09:12PM 40.4172 -87.1633 166° South 411 473 34,000 300 Climbing Chicago Center
09:13PM 40.2997 -87.1192 164° South 435 501 34,000 480 Level Chicago Center
09:14PM 40.1808 -87.0789 165° South 443 510 35,000 480 Climbing Chicago Center
09:15PM 40.0644 -87.0431 167° South 432 497 35,000  Level Chicago Center
09:15PM 40.0103 -87.0244 165° South 433 498 35,000  Level Indianapolis Center
09:17PM 39.8914 -86.9872 166° South 435 501 35,000  Level Indianapolis Center
09:18PM 39.7728 -86.9489 166° South 435 501 35,000  Level Indianapolis Center
09:19PM 39.6544 -86.9119 166° South 436 502 35,000  Level Indianapolis Center
09:20PM 39.5122 -86.8678 167° South 435 501 35,000  Level Indianapolis Center
09:21PM 39.3947 -86.8308 166° South 434 499 35,000  Level Indianapolis Center
09:22PM 39.2806 -86.7708 158° South 441 507 35,000  Level Indianapolis Center
09:23PM 39.1667 -86.7083 157° South 441 507 35,000  Level Indianapolis Center
09:24PM 39.0544 -86.6506 158° South 434 499 35,000  Level Indianapolis Center
09:25PM 38.9342 -86.6133 166° South 440 506 35,000  Level Indianapolis Center
09:26PM 38.8144 -86.5781 167° South 439 505 35,000  Level Indianapolis Center
09:27PM 38.6933 -86.5425 167° South 441 507 35,000  Level Indianapolis Center
09:28PM 38.5717 -86.5061 167° South 442 509 35,000  Level Indianapolis Center
09:29PM 38.4497 -86.4708 167° South 444 511 35,000  Level Indianapolis Center
09:30PM 38.3281 -86.4347 167° South 443 510 35,000  Level Indianapolis Center
09:31PM 38.2078 -86.4000 167° South 440 506 35,000  Level Indianapolis Center
09:32PM 38.0875 -86.3650 167° South 439 505 35,000  Level Indianapolis Center
09:33PM 37.9689 -86.3289 167° South 435 501 35,000  Level Indianapolis Center
09:34PM 37.8486 -86.2958 168° South 437 503 35,000  Level Indianapolis Center
09:35PM 37.7269 -86.2611 167° South 439 505 35,000  Level Indianapolis Center
09:36PM 37.6053 -86.2269 167° South 441 507 35,000  Level Indianapolis Center
09:36PM 37.5417 -86.2064 166° South 454 522 35,000  Level Memphis Center
09:37PM 37.4194 -86.1711 167° South 449 517 35,000  Level Memphis Center
09:38PM 37.3631 -86.1567 168° South 441 507 35,000  Level Indianapolis Center
09:38PM 37.2997 -86.1383 167° South 449 517 35,000  Level Memphis Center
09:39PM 37.2417 -86.1222 168° South 443 510 35,000  Level Indianapolis Center
09:40PM 37.1206 -86.0886 168° South 442 509 35,000  Level Indianapolis Center
09:40PM 37.0619 -86.0728 168° South 444 511 35,000  Level Memphis Center
09:41PM 36.9400 -86.0378 167° South 444 511 35,000  Level Memphis Center
09:42PM 36.8094 -85.9983 166° South 439 505 35,000  Level Memphis Center
09:43PM 36.6875 -85.9661 168° South 439 505 35,000  Level Memphis Center
09:44PM 36.5653 -85.9314 167° South 444 511 35,000  Level Memphis Center
09:45PM 36.4453 -85.8967 167° South 444 511 35,000  Level Memphis Center
09:46PM 36.3231 -85.8622 167° South 454 522 35,000  Level Memphis Center
09:47PM 36.2031 -85.8303 168° South 454 522 35,000  Level Memphis Center
09:50PM 35.9169 -85.7542 168° South 483 556 35,000  Level Atlanta Center
09:51PM 35.7944 -85.7208 168° South 471 542 35,000  Level Atlanta Center
09:52PM 35.6717 -85.6875 168° South 460 529 35,000  Level Atlanta Center
09:53PM 35.5492 -85.6544 168° South 455 524 35,000  Level Atlanta Center
09:54PM 35.4244 -85.6214 168° South 455 524 35,000  Level Atlanta Center
09:55PM 35.3017 -85.5861 167° South 455 524 35,000  Level Atlanta Center
09:56PM 35.1792 -85.5533 168° South 455 524 35,000  Level Atlanta Center
09:57PM 35.0564 -85.5206 168° South 455 524 35,000  Level Atlanta Center
09:58PM 34.9314 -85.4881 168° South 455 524 35,000  Level Atlanta Center
09:59PM 34.8067 -85.4556 168° South 455 524 35,000  Level Atlanta Center
10:00PM 34.6839 -85.4206 167° South 455 524 35,000  Level Atlanta Center
10:01PM 34.5444 -85.3856 168° South 455 524 35,000  Level Atlanta Center
10:02PM 34.4197 -85.3533 168° South 455 524 35,000  Level Atlanta Center
10:03PM 34.3136 -85.3239 167° South 455 524 35,000  Level Atlanta Center
10:04PM 34.1783 -85.2892 168° South 449 517 35,000  Level Atlanta Center
10:05PM 34.0533 -85.2547 167° South 449 517 35,000  Level Atlanta Center
10:06PM 33.9306 -85.2256 169° South 454 522 35,000  Level Atlanta Center
10:07PM 33.8075 -85.1939 168° South 454 522 35,000  Level Atlanta Center
10:08PM 33.6828 -85.1622 168° South 454 522 35,000 -60 Level Atlanta Center
10:09PM 33.5597 -85.1308 168° South 454 522 34,900  Descending Atlanta Center
10:10PM 33.4350 -85.0967 167° South 454 522 35,000  Climbing Atlanta Center
10:11PM 33.3078 -85.0653 168° South 460 529 35,000  Level Atlanta Center
10:12PM 33.1828 -85.0317 167° South 471 542 35,100  Climbing Atlanta Center
10:13PM 33.0536 -84.9981 168° South 471 542 35,000 -60 Descending Atlanta Center
10:14PM 32.9267 -84.9644 167° South 471 542 35,000  Level Atlanta Center
10:15PM 32.8017 -84.9333 168° South 465 535 35,000  Level Atlanta Center
10:16PM 32.6767 -84.8975 166° South 465 535 35,000  Level Atlanta Center
10:17PM 32.5453 -84.8619 167° South 477 549 35,000  Level Atlanta Center
10:18PM 32.4203 -84.8311 168° South 472 543 35,000  Level Atlanta Center
10:19PM 32.2953 -84.8081 171° South 466 536 35,000  Level Atlanta Center
10:21PM 32.0258 -84.7256 165° South 452 520 35,000  Level Jacksonville Center
10:22PM 31.9036 -84.6717 159° South 457 526 35,000  Level Jacksonville Center
10:23PM 31.7811 -84.6156 159° South 464 534 35,000  Level Jacksonville Center
10:24PM 31.6525 -84.5594 160° South 470 541 35,000  Level Jacksonville Center
10:25PM 31.5278 -84.5036 159° South 475 547 35,000  Level Jacksonville Center
10:26PM 31.4033 -84.4456 158° South 480 552 35,000  Level Jacksonville Center
10:27PM 31.2767 -84.3922 160° South 485 558 35,000  Level Jacksonville Center
10:28PM 31.1478 -84.3344 159° South 485 558 35,000  Level Jacksonville Center
10:29PM 31.0231 -84.2792 159° South 485 558 35,000  Level Jacksonville Center
10:30PM 30.8964 -84.2217 159° South 485 558 35,000  Level Jacksonville Center
10:31PM 30.7717 -84.1692 160° South 485 558 35,000  Level Jacksonville Center
10:32PM 30.6469 -84.1144 159° South 485 558 35,000 -60 Level Jacksonville Center
10:33PM 30.5264 -84.0575 158° South 485 558 34,900  Descending Jacksonville Center
10:34PM 30.3975 -84.0053 161° South 479 551 35,000  Climbing Jacksonville Center
10:35PM 30.2683 -83.9483 159° South 487 560 34,900  Descending Jacksonville Center
10:36PM 30.1436 -83.8967 160° South 487 560 35,000  Climbing Jacksonville Center
10:37PM 30.0186 -83.8400 159° South 487 560 35,000 -60 Level Jacksonville Center
10:38PM 29.8917 -83.7861 160° South 487 560 34,900 -60 Descending Jacksonville Center
10:39PM 29.7628 -83.7325 160° South 487 560 34,900  Level Jacksonville Center
10:40PM 29.6356 -83.6764 159° South 487 560 34,900  Level Jacksonville Center
10:41PM 29.5067 -83.6228 160° South 487 560 35,000  Climbing Jacksonville Center
10:42PM 29.3775 -83.5694 160° South 487 560 35,000  Level Jacksonville Center
10:43PM 29.2503 -83.5139 159° South 487 560 35,000 -60 Level Jacksonville Center
10:44PM 29.1108 -83.4536 159° South 487 560 34,900 -60 Descending Jacksonville Center
10:45PM 28.9836 -83.4006 160° South 487 560 34,900 -360 Level Jacksonville Center
10:46PM 28.8567 -83.3453 159° South 487 560 34,200 -900 Descending Jacksonville Center
10:47PM 28.7275 -83.2903 160° South 487 560 33,200 -960 Descending Jacksonville Center
10:48PM 28.6003 -83.2378 160° South 487 560 32,300 -960 Descending Jacksonville Center
10:49PM 28.4731 -83.1831 159° South 487 560 31,300 -960 Descending Jacksonville Center
10:50PM 28.3439 -83.1331 161° South 487 560 30,400 -960 Descending Jacksonville Center
10:50PM 28.2897 -83.1103 160° South 484 557 30,000 -1,560 Descending Miami Center
10:51PM 28.1647 -83.0564 159° South 516 594 28,300 -1,560 Descending Miami Center
10:52PM 28.0397 -83.0025 159° South 501 577 26,900 -660 Descending Miami Center
10:53PM 27.9194 -82.9397 155° Southeast 484 557 27,000  Climbing Miami Center
10:54PM 27.8117 -82.8753 152° Southeast 484 557 26,900 -360 Descending Miami Center
10:55PM 27.6853 -82.8006 152° Southeast 476 548 26,300 -1,260 Descending Miami Center
10:56PM 27.5692 -82.7336 153° Southeast 471 542 24,400 -1,980 Descending Miami Center
10:57PM 27.4672 -82.6747 153° Southeast 466 536 22,400 -1,980 Descending Miami Center
10:58PM 27.3572 -82.6108 153° Southeast 454 522 20,500 -1,860 Descending Miami Center
10:59PM 27.2533 -82.5494 152° Southeast 439 505 18,700 -1,920 Descending Miami Center
11:00PM 27.1431 -82.4833 152° Southeast 424 488 16,700 -1,920 Descending Miami Center
11:01PM 27.0472 -82.4297 154° Southeast 405 466 14,900 -1,800 Descending Miami Center
11:02PM 26.9553 -82.3767 153° Southeast 385 443 13,200 -1,680 Descending Miami Center
11:03PM 26.8653 -82.3258 153° Southeast 374 430 11,600 -1,260 Descending Miami Center
11:04PM 26.7858 -82.2778 152° Southeast 352 405 10,700 -1,140 Descending Miami Center
11:05PM 26.7189 -82.2258 145° Southeast 319 367 9,400 -1,440 Descending Miami Center
11:06PM 26.6519 -82.1694 143° Southeast 304 350 7,900 -1,500 Descending Miami Center
11:07PM 26.5933 -82.1181 142° Southeast 291 335 6,500 -1,800 Descending Miami Center
11:08PM 26.5458 -82.0464 127° Southeast 280 322 4,400 -1,800 Descending Miami Center
11:09PM 26.5039 -81.9889 129° Southeast 268 308 3,000 -720 Descending Miami Center
11:10PM 26.4703 -81.9408 128° Southeast 230 265 3,000  Level Miami Center